createdAt,value
2019-01-24T00:01:08.824Z,56.88
2019-01-24T00:03:40.313Z,56.76
2019-01-24T00:06:12.110Z,56.84
2019-01-24T00:08:43.606Z,57.43
2019-01-24T00:11:15.273Z,57.33
2019-01-24T00:13:47.170Z,56.95
2019-01-24T00:16:18.681Z,56.95
2019-01-24T00:18:50.222Z,57.64
2019-01-24T00:21:21.770Z,57.28
2019-01-24T00:23:53.652Z,57.04
2019-01-24T00:26:25.234Z,57.33
2019-01-24T00:28:56.823Z,56.99
2019-01-24T00:31:28.332Z,56.87
2019-01-24T00:33:59.854Z,57.75
2019-01-24T00:36:31.356Z,57.12
2019-01-24T00:39:02.948Z,57.36
2019-01-24T00:41:35.523Z,57.29
2019-01-24T00:44:07.180Z,57.07
2019-01-24T00:46:38.832Z,56.93
2019-01-24T00:49:10.355Z,57.01
2019-01-24T00:51:41.936Z,57.06
2019-01-24T00:54:13.492Z,56.93
2019-01-24T00:56:44.959Z,56.82
2019-01-24T00:59:16.708Z,56.61
2019-01-24T01:01:48.230Z,56.69
2019-01-24T01:04:19.739Z,56.68
2019-01-24T01:06:51.206Z,56.76
2019-01-24T01:09:22.664Z,56.84
2019-01-24T01:11:54.168Z,56.81
2019-01-24T01:14:25.976Z,56.79
2019-01-24T01:16:58.445Z,56.96
2019-01-24T01:19:30.013Z,56.69
2019-01-24T01:22:01.480Z,56.82
2019-01-24T01:24:33.418Z,56.80
2019-01-24T01:27:04.908Z,56.75
2019-01-24T01:29:36.584Z,56.48
2019-01-24T01:32:08.098Z,56.57
2019-01-24T01:34:39.624Z,56.51
2019-01-24T01:37:11.177Z,56.77
2019-01-24T01:39:42.783Z,56.39
2019-01-24T01:42:14.248Z,56.29
2019-01-24T01:44:46.048Z,56.33
2019-01-24T01:47:17.554Z,56.13
2019-01-24T01:49:49.065Z,56.39
2019-01-24T01:52:20.631Z,56.61
2019-01-24T01:54:52.084Z,56.48
2019-01-24T01:57:23.558Z,56.34
2019-01-24T01:59:55.290Z,56.23
2019-01-24T02:02:26.756Z,56.36
2019-01-24T02:04:58.312Z,56.80
2019-01-24T02:07:29.799Z,56.50
2019-01-24T02:10:01.342Z,56.80
2019-01-24T02:12:32.999Z,57.28
2019-01-24T02:15:05.652Z,56.83
2019-01-24T02:17:37.099Z,57.12
2019-01-24T02:20:13.071Z,56.72
2019-01-24T02:22:44.566Z,56.73
2019-01-24T02:25:16.160Z,56.95
2019-01-24T02:27:47.744Z,56.70
2019-01-24T02:30:25.627Z,57.07
2019-01-24T02:32:57.116Z,56.88
2019-01-24T02:35:28.604Z,57.12
2019-01-24T02:38:00.067Z,56.80
2019-01-24T02:40:31.610Z,56.91
2019-01-24T02:43:03.100Z,56.91
2019-01-24T02:45:34.619Z,56.75
2019-01-24T02:48:06.144Z,56.86
2019-01-24T02:50:37.619Z,56.80
2019-01-24T02:53:09.148Z,56.80
2019-01-24T02:55:40.606Z,56.87
2019-01-24T02:58:12.335Z,57.04
2019-01-24T03:00:43.837Z,57.26
2019-01-24T03:03:15.341Z,57.15
2019-01-24T03:05:46.874Z,57.28
2019-01-24T03:08:18.380Z,56.99
2019-01-24T03:10:49.910Z,57.10
2019-01-24T03:13:21.422Z,57.27
2019-01-24T03:15:52.906Z,57.25
2019-01-24T03:18:24.432Z,57.65
2019-01-24T03:20:55.915Z,57.07
2019-01-24T03:23:27.434Z,57.09
2019-01-24T03:25:59.261Z,57.78
2019-01-24T03:28:30.755Z,57.72
2019-01-24T03:31:02.367Z,57.41
2019-01-24T03:33:33.941Z,57.46
2019-01-24T03:36:05.422Z,57.81
2019-01-24T03:38:37.011Z,58.00
2019-01-24T03:41:08.494Z,57.76
2019-01-24T03:43:39.956Z,57.69
2019-01-24T03:46:12.146Z,58.04
2019-01-24T03:48:43.661Z,58.00
2019-01-24T03:51:15.109Z,58.16
2019-01-24T03:53:46.630Z,58.51
2019-01-24T03:56:18.170Z,58.22
2019-01-24T03:58:49.663Z,58.28
2019-01-24T04:01:21.443Z,57.96
2019-01-24T04:03:52.980Z,57.82
2019-01-24T04:06:24.493Z,57.88
2019-01-24T04:08:55.926Z,58.24
2019-01-24T04:11:27.451Z,57.89
2019-01-24T04:13:59.175Z,58.15
2019-01-24T04:16:30.970Z,58.36
2019-01-24T04:19:02.472Z,58.60
2019-01-24T04:21:34.026Z,58.31
2019-01-24T04:24:05.459Z,58.48
2019-01-24T04:26:37.036Z,58.57
2019-01-24T04:29:08.484Z,58.73
2019-01-24T04:31:39.986Z,59.29
2019-01-24T04:34:11.489Z,58.85
2019-01-24T04:36:42.994Z,58.98
2019-01-24T04:39:14.529Z,58.97
2019-01-24T04:41:46.037Z,58.52
2019-01-24T04:44:17.581Z,58.24
2019-01-24T04:46:49.246Z,58.13
2019-01-24T04:49:20.739Z,57.70
2019-01-24T04:51:52.190Z,57.41
2019-01-24T04:54:23.662Z,57.63
2019-01-24T04:56:55.094Z,57.72
2019-01-24T04:59:26.657Z,57.98
2019-01-24T05:01:58.392Z,57.83
2019-01-24T05:04:29.911Z,57.73
2019-01-24T05:07:01.386Z,58.24
2019-01-24T05:09:32.925Z,58.02
2019-01-24T05:12:04.461Z,57.81
2019-01-24T05:14:36.059Z,57.65
2019-01-24T05:17:07.816Z,57.85
2019-01-24T05:19:39.340Z,57.72
2019-01-24T05:22:10.902Z,58.25
2019-01-24T05:24:42.495Z,57.95
2019-01-24T05:27:14.050Z,58.29
2019-01-24T05:29:45.631Z,58.14
2019-01-24T05:32:17.655Z,58.12
2019-01-24T05:34:49.138Z,58.40
2019-01-24T05:37:20.583Z,58.25
2019-01-24T05:39:52.066Z,57.64
2019-01-24T05:42:23.616Z,58.00
2019-01-24T05:44:55.080Z,58.04
2019-01-24T05:47:26.918Z,58.26
2019-01-24T05:49:58.370Z,57.78
2019-01-24T05:52:29.856Z,57.71
2019-01-24T05:55:01.307Z,57.92
2019-01-24T05:57:32.825Z,57.95
2019-01-24T06:00:05.108Z,57.99
2019-01-24T06:02:36.856Z,58.19
2019-01-24T06:05:09.353Z,57.91
2019-01-24T06:07:40.958Z,58.23
2019-01-24T06:10:15.288Z,57.88
2019-01-24T06:12:46.852Z,58.16
2019-01-24T06:15:18.369Z,58.07
2019-01-24T06:17:51.163Z,58.32
2019-01-24T06:20:22.740Z,58.18
2019-01-24T06:22:54.267Z,58.43
2019-01-24T06:25:25.780Z,58.40
2019-01-24T06:27:57.597Z,58.31
2019-01-24T06:30:29.112Z,58.04
2019-01-24T06:33:00.778Z,57.75
2019-01-24T06:35:32.394Z,57.68
2019-01-24T06:38:03.895Z,57.86
2019-01-24T06:40:35.399Z,57.73
2019-01-24T06:43:06.941Z,57.75
2019-01-24T06:45:38.447Z,58.04
2019-01-24T06:48:10.225Z,57.91
2019-01-24T06:50:42.156Z,58.14
2019-01-24T06:53:13.652Z,57.90
2019-01-24T06:55:45.154Z,57.91
2019-01-24T06:58:16.649Z,57.73
2019-01-24T07:00:48.212Z,57.97
2019-01-24T07:03:20.345Z,57.65
2019-01-24T07:05:55.329Z,57.58
2019-01-24T07:08:25.138Z,57.87
2019-01-24T07:10:56.680Z,57.84
2019-01-24T07:13:28.181Z,57.61
2019-01-24T07:15:59.944Z,57.70
2019-01-24T07:18:31.432Z,57.89
2019-01-24T07:21:02.974Z,57.68
2019-01-24T07:23:34.477Z,57.68
2019-01-24T07:26:06.010Z,57.74
2019-01-24T07:28:37.767Z,57.60
2019-01-24T07:31:09.259Z,57.71
2019-01-24T07:33:40.840Z,57.51
2019-01-24T07:36:12.355Z,57.41
2019-01-24T07:38:43.809Z,57.47
2019-01-24T07:41:15.370Z,57.33
2019-01-24T07:43:46.830Z,57.10
2019-01-24T07:46:18.350Z,57.34
2019-01-24T07:48:50.201Z,57.37
2019-01-24T07:51:21.742Z,57.61
2019-01-24T07:53:53.311Z,57.32
2019-01-24T07:56:24.887Z,57.18
2019-01-24T07:58:56.330Z,56.66
2019-01-24T08:01:27.838Z,56.68
2019-01-24T08:03:59.629Z,56.88
2019-01-24T08:06:31.125Z,56.79
2019-01-24T08:09:02.627Z,56.72
2019-01-24T08:11:34.078Z,56.95
2019-01-24T08:14:05.728Z,57.00
2019-01-24T08:16:37.271Z,56.71
2019-01-24T08:19:09.066Z,57.02
2019-01-24T08:21:40.522Z,56.69
2019-01-24T08:24:12.370Z,56.66
2019-01-24T08:26:43.845Z,56.78
2019-01-24T08:29:15.714Z,56.64
2019-01-24T08:31:47.176Z,56.67
2019-01-24T08:34:19.046Z,56.48
2019-01-24T08:36:50.515Z,56.25
2019-01-24T08:39:22.088Z,56.88
2019-01-24T08:41:53.598Z,56.64
2019-01-24T08:44:25.134Z,56.75
2019-01-24T08:46:56.990Z,56.93
2019-01-24T08:49:28.845Z,56.80
2019-01-24T08:52:00.352Z,56.42
2019-01-24T08:54:31.954Z,56.27
2019-01-24T08:57:03.505Z,56.10
2019-01-24T08:59:35.131Z,56.09
2019-01-24T09:02:06.604Z,56.10
2019-01-24T09:04:38.405Z,55.76
2019-01-24T09:07:09.936Z,55.46
2019-01-24T09:09:41.410Z,55.21
2019-01-24T09:12:12.892Z,55.14
2019-01-24T09:14:44.385Z,55.25
2019-01-24T09:17:15.865Z,55.04
2019-01-24T09:19:47.744Z,54.94
2019-01-24T09:22:19.218Z,54.85
2019-01-24T09:24:50.670Z,54.50
2019-01-24T09:27:22.246Z,54.32
2019-01-24T09:29:53.990Z,54.14
2019-01-24T09:32:25.515Z,53.75
2019-01-24T09:34:57.202Z,53.82
2019-01-24T09:37:28.735Z,53.54
2019-01-24T09:40:00.325Z,53.66
2019-01-24T09:42:31.797Z,53.45
2019-01-24T09:45:03.267Z,53.10
2019-01-24T09:47:34.823Z,52.83
2019-01-24T09:50:09.328Z,52.73
2019-01-24T09:52:40.821Z,52.67
2019-01-24T09:55:12.295Z,52.71
2019-01-24T09:57:43.856Z,52.78
2019-01-24T10:00:22.189Z,52.28
2019-01-24T10:02:53.694Z,52.36
2019-01-24T10:05:25.459Z,52.04
2019-01-24T10:07:57.004Z,51.54
2019-01-24T10:10:28.614Z,52.21
2019-01-24T10:13:00.358Z,52.14
2019-01-24T10:15:31.846Z,51.74
2019-01-24T10:18:03.430Z,51.28
2019-01-24T10:20:35.134Z,51.08
2019-01-24T10:23:06.749Z,50.39
2019-01-24T10:25:44.285Z,50.05
2019-01-24T10:28:15.844Z,50.25
2019-01-24T10:30:47.617Z,49.75
2019-01-24T10:33:19.117Z,49.77
2019-01-24T10:35:50.850Z,49.52
2019-01-24T10:38:22.402Z,49.51
2019-01-24T10:40:53.964Z,49.43
2019-01-24T10:43:25.528Z,49.38
2019-01-24T10:45:56.994Z,49.02
2019-01-24T10:48:29.712Z,49.04
2019-01-24T10:51:01.642Z,48.78
2019-01-24T10:53:33.158Z,49.29
2019-01-24T10:56:04.646Z,48.94
2019-01-24T10:58:36.175Z,49.23
2019-01-24T11:01:07.803Z,49.45
2019-01-24T11:03:39.265Z,48.99
2019-01-24T11:06:11.047Z,48.18
2019-01-24T11:08:42.542Z,47.70
2019-01-24T11:11:14.105Z,47.40
2019-01-24T11:13:45.552Z,47.01
2019-01-24T11:16:17.164Z,46.43
2019-01-24T11:18:48.768Z,46.70
2019-01-24T11:21:20.626Z,46.92
2019-01-24T11:23:52.123Z,46.34
2019-01-24T14:24:05.176Z,50.17
2019-01-24T14:26:36.958Z,51.10
2019-01-24T14:29:08.431Z,49.83
2019-01-24T14:31:39.932Z,48.83
2019-01-24T14:34:11.410Z,49.50
2019-01-24T14:36:43.068Z,49.14
2019-01-24T14:39:14.543Z,49.13
2019-01-24T14:41:46.079Z,48.88
2019-01-24T14:44:17.555Z,49.58
2019-01-24T14:46:49.146Z,49.15
2019-01-24T14:49:20.626Z,49.50
2019-01-24T14:51:52.143Z,49.75
2019-01-24T14:54:23.759Z,49.41
2019-01-24T14:56:55.325Z,49.66
2019-01-24T14:59:26.751Z,49.55
2019-01-24T15:01:58.369Z,49.82
2019-01-24T15:04:29.914Z,50.19
2019-01-24T15:07:01.746Z,50.14
2019-01-24T15:09:33.360Z,50.06
2019-01-24T15:12:04.914Z,50.30
2019-01-24T15:14:36.428Z,50.34
2019-01-24T15:17:07.912Z,50.56
2019-01-24T15:19:39.911Z,50.91
2019-01-24T15:22:11.413Z,51.25
2019-01-24T15:24:43.028Z,51.44
2019-01-24T15:27:14.593Z,51.57
2019-01-24T15:29:46.102Z,51.62
2019-01-24T15:32:17.581Z,51.98
2019-01-24T15:34:49.322Z,51.80
2019-01-24T15:37:21.137Z,52.08
2019-01-24T15:39:52.629Z,51.98
2019-01-24T15:42:25.397Z,52.38
2019-01-24T15:44:57.914Z,52.37
2019-01-24T15:47:29.414Z,52.49
2019-01-24T15:50:01.551Z,52.78
2019-01-24T15:52:34.154Z,52.65
2019-01-24T15:55:06.316Z,52.90
2019-01-24T15:57:37.882Z,53.04
2019-01-24T16:00:15.506Z,53.20
2019-01-24T16:02:47.116Z,53.11
2019-01-24T16:05:19.683Z,53.24
2019-01-24T16:07:51.153Z,53.59
2019-01-24T16:10:23.475Z,53.42
2019-01-24T16:12:56.125Z,53.63
2019-01-24T16:15:36.161Z,53.46
2019-01-24T16:18:10.983Z,53.55
2019-01-24T16:20:42.458Z,53.76
2019-01-24T16:23:14.051Z,53.53
2019-01-24T16:25:46.234Z,53.57
2019-01-24T16:28:24.465Z,53.50
2019-01-24T16:30:51.174Z,53.45
2019-01-24T16:33:23.320Z,53.50
2019-01-24T16:35:54.865Z,53.57
2019-01-24T16:38:26.624Z,53.81
2019-01-24T16:40:59.313Z,53.59
2019-01-24T16:43:31.079Z,53.57
2019-01-24T16:46:02.589Z,53.61
2019-01-24T16:48:34.184Z,53.22
2019-01-24T16:51:06.093Z,53.40
2019-01-24T16:53:37.614Z,53.59
2019-01-24T16:56:09.146Z,53.39
2019-01-24T16:58:40.788Z,53.23
2019-01-24T17:01:22.836Z,53.45
2019-01-24T17:03:54.365Z,53.12
2019-01-24T17:06:26.447Z,53.50
2019-01-24T17:08:57.986Z,53.32
2019-01-24T17:11:30.583Z,53.13
2019-01-24T17:14:02.211Z,53.41
2019-01-24T17:16:33.991Z,53.53
2019-01-24T17:19:05.669Z,53.79
2019-01-24T17:21:37.513Z,53.36
2019-01-24T17:24:09.018Z,53.82
2019-01-24T17:26:40.895Z,53.56
2019-01-24T17:29:12.526Z,53.29
2019-01-24T17:31:44.046Z,53.61
2019-01-24T17:34:15.710Z,53.44
2019-01-24T17:36:47.639Z,53.82
2019-01-24T17:39:19.108Z,53.71
2019-01-24T17:41:50.698Z,53.56
2019-01-24T17:44:22.371Z,54.03
2019-01-24T17:46:54.119Z,53.77
2019-01-24T17:49:25.703Z,54.14
2019-01-24T17:51:57.725Z,54.20
2019-01-24T17:54:29.247Z,54.62
2019-01-24T17:57:00.868Z,54.17
2019-01-24T17:59:32.372Z,53.73
2019-01-24T18:02:03.909Z,53.87
2019-01-24T18:04:35.449Z,53.95
2019-01-24T18:07:07.340Z,53.73
2019-01-24T18:09:39.930Z,53.60
2019-01-24T18:12:11.813Z,53.67
2019-01-24T18:14:43.286Z,54.13
2019-01-24T18:17:15.994Z,54.25
2019-01-24T18:19:47.531Z,54.07
2019-01-24T18:22:19.075Z,54.15
2019-01-24T18:24:50.553Z,53.91
2019-01-24T18:27:22.074Z,54.30
2019-01-24T18:29:53.745Z,54.37
2019-01-24T18:32:25.359Z,54.18
2019-01-24T18:34:56.876Z,53.71
2019-01-24T18:37:28.647Z,53.90
2019-01-24T18:40:00.190Z,54.15
2019-01-24T18:42:31.745Z,53.88
2019-01-24T18:45:03.427Z,53.87
2019-01-24T18:47:35.111Z,54.29
2019-01-24T18:50:10.799Z,54.31
2019-01-24T18:52:42.877Z,54.25
2019-01-24T18:55:14.728Z,54.42
2019-01-24T18:57:48.439Z,54.42
2019-01-24T19:00:30.076Z,54.32
2019-01-24T19:03:01.700Z,54.44
2019-01-24T19:05:33.417Z,54.75
2019-01-24T19:08:05.214Z,55.35
2019-01-24T19:10:37.129Z,54.73
2019-01-24T19:13:10.031Z,54.85
2019-01-24T19:15:48.050Z,54.83
2019-01-24T19:18:21.080Z,55.40
2019-01-24T19:20:52.931Z,55.37
2019-01-24T19:23:25.549Z,55.47
2019-01-24T19:25:57.733Z,55.55
2019-01-24T19:28:29.692Z,55.46
2019-01-24T19:31:01.560Z,55.28
2019-01-24T19:33:33.528Z,55.44
2019-01-24T19:36:05.301Z,55.33
2019-01-24T19:38:37.397Z,55.47
2019-01-24T19:41:09.372Z,55.18
2019-01-24T19:43:41.022Z,55.03
2019-01-24T19:46:13.256Z,55.32
2019-01-24T19:48:45.137Z,55.52
2019-01-24T19:51:16.648Z,55.51
2019-01-24T19:53:48.913Z,55.20
2019-01-24T19:56:20.528Z,54.96
2019-01-24T19:58:52.020Z,55.37
2019-01-24T20:01:23.731Z,55.30
2019-01-24T20:03:55.371Z,55.68
2019-01-24T20:06:26.850Z,55.28
2019-01-24T20:09:00.428Z,55.83
2019-01-24T20:11:31.929Z,55.99
2019-01-24T20:14:03.499Z,56.21
2019-01-24T20:16:35.050Z,55.77
2019-01-24T20:19:06.592Z,55.50
2019-01-24T20:21:38.141Z,55.90
2019-01-24T20:24:10.058Z,56.28
2019-01-24T20:26:41.705Z,55.93
2019-01-24T20:29:13.166Z,56.15
2019-01-24T20:31:44.681Z,55.94
2019-01-24T20:34:16.299Z,56.08
2019-01-24T20:36:48.143Z,55.97
2019-01-24T20:39:20.021Z,55.58
2019-01-24T20:41:51.614Z,55.91
2019-01-24T20:44:24.425Z,55.86
2019-01-24T20:46:55.980Z,55.72
2019-01-24T20:49:28.725Z,55.56
2019-01-24T20:52:00.241Z,55.79
2019-01-24T20:54:32.032Z,55.73
2019-01-24T20:57:03.620Z,55.95
2019-01-24T20:59:35.348Z,55.85
2019-01-24T21:02:07.761Z,55.84
2019-01-24T21:04:39.579Z,55.91
2019-01-24T21:07:12.269Z,55.88
2019-01-24T21:09:45.010Z,55.65
2019-01-24T21:12:17.242Z,55.58
2019-01-24T21:14:49.656Z,55.77
2019-01-24T21:17:21.330Z,55.50
2019-01-24T21:19:53.041Z,55.31
2019-01-24T21:22:25.079Z,55.43
2019-01-24T21:24:56.694Z,55.37
2019-01-24T21:27:28.941Z,55.74
2019-01-24T21:30:02.166Z,55.84
2019-01-24T21:32:33.969Z,55.61
2019-01-24T21:35:06.037Z,55.13
2019-01-24T21:37:37.550Z,54.95
2019-01-24T21:40:11.698Z,55.25
2019-01-24T21:42:43.322Z,55.65
2019-01-24T21:45:21.308Z,55.42
2019-01-24T21:47:53.102Z,55.99
2019-01-24T21:50:26.049Z,55.47
2019-01-24T21:52:57.711Z,55.56
2019-01-24T21:55:29.665Z,55.33
2019-01-24T21:58:02.343Z,55.20
2019-01-24T22:00:35.010Z,55.23
2019-01-24T22:03:06.908Z,55.46
2019-01-24T22:05:38.464Z,55.28
2019-01-24T22:08:10.103Z,55.10
2019-01-24T22:10:41.980Z,55.42
2019-01-24T22:13:13.511Z,55.24
2019-01-24T22:15:44.991Z,55.53
2019-01-24T22:18:16.580Z,55.56
2019-01-24T22:20:48.219Z,55.59
2019-01-24T22:23:19.826Z,55.45
2019-01-24T22:25:51.617Z,55.62
2019-01-24T22:28:23.091Z,55.55
2019-01-24T22:30:57.115Z,55.33
2019-01-24T22:33:28.700Z,55.41
2019-01-24T22:36:00.153Z,55.29
2019-01-24T22:38:31.682Z,55.35
2019-01-24T22:41:03.409Z,55.29
2019-01-24T22:43:34.958Z,55.26
2019-01-24T22:46:06.424Z,55.53
2019-01-24T22:48:37.904Z,55.64
2019-01-24T22:51:09.384Z,55.86
2019-01-24T22:53:40.908Z,55.65
2019-01-24T22:56:12.403Z,55.82
2019-01-24T22:58:43.889Z,55.71
2019-01-24T23:01:41.750Z,55.67
2019-01-24T23:04:20.259Z,55.48
2019-01-24T23:06:51.785Z,55.12
2019-01-24T23:09:24.105Z,55.82
2019-01-24T23:11:55.824Z,55.44
2019-01-24T23:14:27.259Z,55.25
2019-01-24T23:16:58.787Z,55.17
2019-01-24T23:19:30.311Z,55.34
2019-01-24T23:22:02.892Z,55.02
2019-01-24T23:24:34.461Z,54.83
2019-01-24T23:27:06.364Z,55.32
2019-01-24T23:29:37.878Z,55.12
2019-01-24T23:32:09.446Z,54.80
2019-01-24T23:34:40.873Z,54.96
2019-01-24T23:37:12.401Z,54.70
2019-01-24T23:39:43.879Z,55.00
2019-01-24T23:42:15.679Z,55.02
2019-01-24T23:44:47.383Z,54.95
2019-01-24T23:47:18.896Z,55.32
2019-01-24T23:49:50.357Z,55.06
2019-01-24T23:52:21.911Z,55.27
2019-01-24T23:54:53.358Z,54.65
2019-01-24T23:57:25.203Z,54.57
2019-01-24T23:59:56.700Z,54.67
